createdAt,value
2022-10-28T00:00:58.474Z,1015.97
2022-10-28T00:01:58.478Z,1015.93
2022-10-28T00:02:58.493Z,1015.93
2022-10-28T00:03:58.424Z,1015.91
2022-10-28T00:04:58.532Z,1015.91
2022-10-28T00:05:58.404Z,1015.87
2022-10-28T00:06:58.381Z,1015.84
2022-10-28T00:07:58.362Z,1015.85
2022-10-28T00:08:58.373Z,1015.81
2022-10-28T00:09:58.333Z,1015.80
2022-10-28T00:10:58.375Z,1015.83
2022-10-28T00:11:58.328Z,1015.79
2022-10-28T00:12:58.303Z,1015.77
2022-10-28T00:13:58.276Z,1015.79
2022-10-28T00:14:58.287Z,1015.84
2022-10-28T00:15:58.276Z,1015.81
2022-10-28T00:16:58.277Z,1015.75
2022-10-28T00:17:58.241Z,1015.74
2022-10-28T00:18:58.218Z,1015.78
2022-10-28T00:19:58.206Z,1015.74
2022-10-28T00:20:58.215Z,1015.82
2022-10-28T00:21:58.177Z,1015.72
2022-10-28T00:22:58.213Z,1015.60
2022-10-28T00:23:58.161Z,1015.49
2022-10-28T00:24:58.147Z,1015.50
2022-10-28T00:25:58.135Z,1015.58
2022-10-28T00:26:58.110Z,1015.54
2022-10-28T00:27:58.097Z,1015.48
2022-10-28T00:28:58.222Z,1015.34
2022-10-28T00:29:58.074Z,1015.27
2022-10-28T00:30:58.074Z,1015.37
2022-10-28T00:31:58.055Z,1015.43
2022-10-28T00:32:58.033Z,1015.58
2022-10-28T00:33:58.050Z,1015.80
2022-10-28T00:34:58.043Z,1015.78
2022-10-28T00:35:57.992Z,1015.42
2022-10-28T00:36:58.013Z,1015.36
2022-10-28T00:37:57.962Z,1015.38
2022-10-28T00:38:57.996Z,1015.36
2022-10-28T00:39:57.959Z,1015.37
2022-10-28T00:40:57.986Z,1015.36
2022-10-28T00:41:57.939Z,1015.48
2022-10-28T00:42:57.903Z,1015.56
2022-10-28T00:43:57.885Z,1015.52
2022-10-28T00:44:57.901Z,1015.51
2022-10-28T00:45:57.870Z,1015.51
2022-10-28T00:46:57.975Z,1015.45
2022-10-28T00:47:57.926Z,1015.53
2022-10-28T00:48:57.838Z,1015.53
2022-10-28T00:49:57.807Z,1015.56
2022-10-28T00:50:57.811Z,1015.58
2022-10-28T00:51:57.790Z,1015.51
2022-10-28T00:52:57.798Z,1015.54
2022-10-28T00:53:57.774Z,1015.41
2022-10-28T00:54:57.739Z,1015.42
2022-10-28T00:55:57.728Z,1015.32
2022-10-28T00:56:57.731Z,1015.37
2022-10-28T00:57:57.699Z,1015.31
2022-10-28T00:58:57.733Z,1015.31
2022-10-28T00:59:57.685Z,1015.33
2022-10-28T01:00:57.670Z,1015.35
2022-10-28T01:01:57.744Z,1015.33
2022-10-28T01:02:57.654Z,1015.32
2022-10-28T01:03:57.637Z,1015.29
2022-10-28T01:04:57.722Z,1015.29
2022-10-28T01:05:57.606Z,1015.29
2022-10-28T01:06:57.585Z,1015.29
2022-10-28T01:07:57.564Z,1015.24
2022-10-28T01:09:00.018Z,1015.18
2022-10-28T01:09:57.545Z,1015.12
2022-10-28T01:10:57.669Z,1015.12
2022-10-28T01:11:57.526Z,1015.08
2022-10-28T01:12:57.495Z,1015.06
2022-10-28T01:13:57.507Z,1015.09
2022-10-28T01:14:57.477Z,1015.06
2022-10-28T01:15:57.455Z,1015.02
2022-10-28T01:16:57.501Z,1015.02
2022-10-28T01:17:57.463Z,1015.01
2022-10-28T01:18:57.426Z,1015.02
2022-10-28T01:19:57.405Z,1015.06
2022-10-28T01:20:57.411Z,1015.08
2022-10-28T01:21:57.367Z,1015.09
2022-10-28T01:22:57.495Z,1015.07
2022-10-28T01:23:57.367Z,1015.07
2022-10-28T01:24:57.339Z,1015.06
2022-10-28T01:25:57.335Z,1015.06
2022-10-28T01:26:57.309Z,1015.06
2022-10-28T01:27:57.290Z,1015.02
2022-10-28T01:28:57.414Z,1015.07
2022-10-28T01:29:57.278Z,1015.11
2022-10-28T01:30:57.274Z,1015.10
2022-10-28T01:31:57.257Z,1015.05
2022-10-28T01:32:57.232Z,1015.04
2022-10-28T01:33:57.231Z,1015.02
2022-10-28T01:34:57.246Z,1015.04
2022-10-28T01:35:57.219Z,1015.02
2022-10-28T01:36:57.172Z,1015.08
2022-10-28T01:37:57.177Z,1015.06
2022-10-28T01:38:57.143Z,1015.02
2022-10-28T01:39:57.145Z,1015.00
2022-10-28T01:40:57.250Z,1015.00
2022-10-28T01:41:57.114Z,1014.97
2022-10-28T01:42:57.109Z,1014.94
2022-10-28T01:43:57.099Z,1014.94
2022-10-28T01:44:57.066Z,1014.96
2022-10-28T01:45:57.078Z,1014.94
2022-10-28T01:46:57.154Z,1014.94
2022-10-28T01:47:57.036Z,1014.87
2022-10-28T01:48:57.038Z,1014.88
2022-10-28T01:49:57.021Z,1014.89
2022-10-28T01:50:56.987Z,1014.87
2022-10-28T01:51:56.986Z,1014.83
2022-10-28T01:52:57.103Z,1014.83
2022-10-28T01:53:56.959Z,1014.76
2022-10-28T01:54:56.943Z,1014.77
2022-10-28T01:55:56.943Z,1014.77
2022-10-28T01:56:56.910Z,1014.78
2022-10-28T01:57:56.925Z,1014.76
2022-10-28T01:58:57.000Z,1014.73
2022-10-28T01:59:56.881Z,1014.68
2022-10-28T02:00:56.954Z,1014.72
2022-10-28T02:01:57.002Z,1014.71
2022-10-28T02:02:56.956Z,1014.73
2022-10-28T02:03:56.835Z,1014.71
2022-10-28T02:04:56.841Z,1014.71
2022-10-28T02:05:56.792Z,1014.71
2022-10-28T02:06:56.794Z,1014.71
2022-10-28T02:07:56.785Z,1014.71
2022-10-28T02:08:56.745Z,1014.72
2022-10-28T02:09:56.752Z,1014.73
2022-10-28T02:10:56.839Z,1014.72
2022-10-28T02:11:56.719Z,1014.74
2022-10-28T02:12:56.702Z,1014.71
2022-10-28T02:13:56.685Z,1014.70
2022-10-28T02:14:56.704Z,1014.68
2022-10-28T02:15:56.671Z,1014.70
2022-10-28T02:16:56.746Z,1014.62
2022-10-28T02:17:56.952Z,1014.63
2022-10-28T02:18:56.608Z,1014.64
2022-10-28T02:19:56.607Z,1014.62
2022-10-28T02:20:56.606Z,1014.61
2022-10-28T02:21:56.589Z,1014.63
2022-10-28T02:22:56.659Z,1014.59
2022-10-28T02:23:56.549Z,1014.59
2022-10-28T02:24:56.542Z,1014.57
2022-10-28T02:25:56.521Z,1014.55
2022-10-28T02:26:56.526Z,1014.57
2022-10-28T02:27:56.622Z,1014.53
2022-10-28T02:28:56.591Z,1014.53
2022-10-28T02:29:56.488Z,1014.52
2022-10-28T02:30:56.442Z,1014.53
2022-10-28T02:31:56.441Z,1014.52
2022-10-28T02:32:56.681Z,1014.47
2022-10-28T02:33:56.421Z,1014.45
2022-10-28T02:34:56.454Z,1014.41
2022-10-28T02:35:56.410Z,1014.39
2022-10-28T02:36:56.363Z,1014.43
2022-10-28T02:37:56.379Z,1014.40
2022-10-28T02:38:56.335Z,1014.39
2022-10-28T02:39:56.332Z,1014.32
2022-10-28T02:40:56.453Z,1014.29
2022-10-28T02:41:56.312Z,1014.27
2022-10-28T02:42:56.711Z,1014.25
2022-10-28T02:43:56.299Z,1014.26
2022-10-28T02:44:56.274Z,1014.28
2022-10-28T02:45:56.270Z,1014.29
2022-10-28T02:46:56.352Z,1014.23
2022-10-28T02:47:56.223Z,1014.19
2022-10-28T02:48:56.225Z,1014.20
2022-10-28T02:49:56.205Z,1014.15
2022-10-28T02:50:56.192Z,1014.15
2022-10-28T02:51:56.190Z,1014.16
2022-10-28T02:52:56.487Z,1014.11
2022-10-28T02:53:56.151Z,1014.13
2022-10-28T02:54:56.143Z,1014.09
2022-10-28T02:55:56.133Z,1014.09
2022-10-28T02:56:56.100Z,1014.11
2022-10-28T02:57:56.285Z,1014.13
2022-10-28T02:58:56.191Z,1014.13
2022-10-28T02:59:56.071Z,1014.10
2022-10-28T03:00:56.138Z,1014.14
2022-10-28T03:01:56.205Z,1014.12
2022-10-28T03:02:56.036Z,1014.13
2022-10-28T03:03:56.025Z,1014.12
2022-10-28T03:04:56.032Z,1014.10
2022-10-28T03:05:56.009Z,1014.14
2022-10-28T03:06:55.963Z,1014.13
2022-10-28T03:07:56.134Z,1014.12
2022-10-28T03:08:55.960Z,1014.12
2022-10-28T03:09:55.949Z,1014.11
2022-10-28T03:10:55.946Z,1014.10
2022-10-28T03:11:55.905Z,1014.09
2022-10-28T03:12:55.903Z,1014.10
2022-10-28T03:13:55.876Z,1014.10
2022-10-28T03:14:55.960Z,1014.05
2022-10-28T03:15:55.973Z,1014.06
2022-10-28T03:16:56.009Z,1014.05
2022-10-28T03:17:56.220Z,1014.03
2022-10-28T03:18:55.904Z,1014.04
2022-10-28T03:19:55.873Z,1014.11
2022-10-28T03:20:58.874Z,1014.11
2022-10-28T03:21:55.846Z,1014.14
2022-10-28T03:22:56.203Z,1014.07
2022-10-28T03:23:55.845Z,1014.09
2022-10-28T03:24:55.826Z,1014.09
2022-10-28T03:25:55.762Z,1014.05
2022-10-28T03:26:55.764Z,1014.03
2022-10-28T03:27:55.764Z,1014.02
2022-10-28T03:28:55.758Z,1014.03
2022-10-28T03:29:55.761Z,1014.06
2022-10-28T03:30:55.731Z,1014.03
2022-10-28T03:31:55.726Z,1014.04
2022-10-28T03:32:56.075Z,1013.99
2022-10-28T03:33:55.690Z,1014.00
2022-10-28T03:34:55.730Z,1014.01
2022-10-28T03:35:55.706Z,1013.99
2022-10-28T03:36:55.664Z,1013.96
2022-10-28T03:37:55.672Z,1014.00
2022-10-28T03:38:55.597Z,1013.96
2022-10-28T03:39:55.597Z,1013.97
2022-10-28T03:40:55.687Z,1013.99
2022-10-28T03:41:55.626Z,1013.98
2022-10-28T03:42:56.061Z,1013.99
2022-10-28T03:43:55.592Z,1013.98
2022-10-28T03:44:55.539Z,1014.00
2022-10-28T03:45:55.559Z,1013.97
2022-10-28T03:46:55.675Z,1013.97
2022-10-28T03:47:55.784Z,1013.95
2022-10-28T03:48:55.513Z,1013.93
2022-10-28T03:49:55.454Z,1013.94
2022-10-28T03:50:55.484Z,1014.00
2022-10-28T03:51:55.442Z,1013.97
2022-10-28T03:52:55.514Z,1013.99
2022-10-28T03:53:55.432Z,1014.01
2022-10-28T03:54:55.410Z,1013.98
2022-10-28T03:55:55.438Z,1014.01
2022-10-28T03:56:55.401Z,1014.01
2022-10-28T03:57:55.641Z,1013.99
2022-10-28T03:58:55.499Z,1013.96
2022-10-28T03:59:55.354Z,1013.93
2022-10-28T04:00:55.408Z,1013.92
2022-10-28T04:01:55.530Z,1013.91
2022-10-28T04:02:55.674Z,1013.88
2022-10-28T04:03:55.299Z,1013.89
2022-10-28T04:04:55.383Z,1013.89
2022-10-28T04:05:55.248Z,1013.92
2022-10-28T04:06:55.215Z,1013.85
2022-10-28T04:07:55.205Z,1013.84
2022-10-28T04:08:55.227Z,1013.79
2022-10-28T04:09:55.230Z,1013.80
2022-10-28T04:10:55.238Z,1013.80
2022-10-28T04:11:55.268Z,1013.80
2022-10-28T04:12:55.442Z,1013.81
2022-10-28T04:13:55.196Z,1013.78
2022-10-28T04:14:55.120Z,1013.80
2022-10-28T04:15:55.150Z,1013.75
2022-10-28T04:16:55.218Z,1013.81
2022-10-28T04:17:55.091Z,1013.80
2022-10-28T04:18:55.037Z,1013.76
2022-10-28T04:19:55.042Z,1013.81
2022-10-28T04:20:55.113Z,1013.78
2022-10-28T04:21:55.048Z,1013.77
2022-10-28T04:22:57.166Z,1013.72
2022-10-28T04:23:55.007Z,1013.68
2022-10-28T04:24:54.990Z,1013.69
2022-10-28T04:25:55.021Z,1013.69
2022-10-28T04:26:54.943Z,1013.66
2022-10-28T04:27:55.348Z,1013.73
2022-10-28T04:28:55.107Z,1013.65
2022-10-28T04:29:55.004Z,1013.66
2022-10-28T04:30:54.862Z,1013.72
2022-10-28T04:31:54.903Z,1013.69
2022-10-28T04:32:54.870Z,1013.74
2022-10-28T04:33:54.863Z,1013.73
2022-10-28T04:34:54.859Z,1013.83
2022-10-28T04:35:54.840Z,1013.82
2022-10-28T04:36:54.875Z,1013.84
2022-10-28T04:37:55.160Z,1013.83
2022-10-28T04:38:54.799Z,1013.81
2022-10-28T04:39:54.813Z,1013.79
2022-10-28T04:40:54.866Z,1013.79
2022-10-28T04:41:54.803Z,1013.77
2022-10-28T04:42:55.004Z,1013.77
2022-10-28T04:43:54.718Z,1013.77
2022-10-28T04:44:54.729Z,1013.76
2022-10-28T04:45:54.730Z,1013.75
2022-10-28T04:46:54.727Z,1013.72
2022-10-28T04:47:54.676Z,1013.73
2022-10-28T04:48:54.624Z,1013.74
2022-10-28T04:49:54.628Z,1013.72
2022-10-28T04:50:54.614Z,1013.71
2022-10-28T04:51:54.786Z,1013.71
2022-10-28T04:52:55.088Z,1013.68
2022-10-28T04:53:54.611Z,1013.71
2022-10-28T04:54:54.591Z,1013.71
2022-10-28T04:55:54.571Z,1013.70
2022-10-28T04:56:54.559Z,1013.70
2022-10-28T04:57:54.553Z,1013.66
2022-10-28T04:58:54.639Z,1013.61
2022-10-28T04:59:54.506Z,1013.70
2022-10-28T05:00:54.631Z,1013.61
2022-10-28T05:01:55.503Z,1013.62
2022-10-28T05:02:54.812Z,1013.65
2022-10-28T05:03:54.436Z,1013.65
2022-10-28T05:04:54.514Z,1013.62
2022-10-28T05:05:54.418Z,1013.66
2022-10-28T05:06:54.367Z,1013.67
2022-10-28T05:07:54.514Z,1013.65
2022-10-28T05:08:54.349Z,1013.69
2022-10-28T05:09:54.346Z,1013.63
2022-10-28T05:10:54.466Z,1013.62
2022-10-28T05:11:54.351Z,1013.60
2022-10-28T05:12:54.298Z,1013.62
2022-10-28T05:13:54.303Z,1013.54
2022-10-28T05:14:54.269Z,1013.52
2022-10-28T05:15:54.267Z,1013.52
2022-10-28T05:16:54.282Z,1013.46
2022-10-28T05:17:54.673Z,1013.47
2022-10-28T05:18:54.207Z,1013.51
2022-10-28T05:19:54.189Z,1013.48
2022-10-28T05:20:54.191Z,1013.46
2022-10-28T05:21:54.192Z,1013.43
2022-10-28T05:22:54.516Z,1013.44
2022-10-28T05:23:54.188Z,1013.38
2022-10-28T05:24:54.130Z,1013.44
2022-10-28T05:25:54.152Z,1013.43
2022-10-28T05:26:54.102Z,1013.43
2022-10-28T05:27:54.100Z,1013.42
2022-10-28T05:28:54.157Z,1013.44
2022-10-28T05:29:54.096Z,1013.44
2022-10-28T05:30:54.061Z,1013.44
2022-10-28T05:31:54.124Z,1013.49
2022-10-28T05:32:55.314Z,1013.52
2022-10-28T05:33:54.019Z,1013.53
2022-10-28T05:34:54.043Z,1013.46
2022-10-28T05:35:54.030Z,1013.50
2022-10-28T05:36:53.966Z,1013.50
2022-10-28T05:37:53.968Z,1013.57
2022-10-28T05:38:53.934Z,1013.55
2022-10-28T05:39:53.945Z,1013.53
2022-10-28T05:40:53.947Z,1013.56
2022-10-28T05:41:53.916Z,1013.56
2022-10-28T05:42:54.273Z,1013.56
2022-10-28T05:43:53.903Z,1013.53
2022-10-28T05:44:53.856Z,1013.53
2022-10-28T05:45:53.869Z,1013.51
2022-10-28T05:46:53.868Z,1013.52
2022-10-28T05:47:54.228Z,1013.54
2022-10-28T05:48:53.811Z,1013.49
2022-10-28T05:49:53.789Z,1013.51
2022-10-28T05:50:53.795Z,1013.52
2022-10-28T05:51:53.792Z,1013.54
2022-10-28T05:52:53.889Z,1013.51
2022-10-28T05:53:53.753Z,1013.57
2022-10-28T05:54:53.739Z,1013.55
2022-10-28T05:55:53.741Z,1013.53
2022-10-28T05:56:53.721Z,1013.51
2022-10-28T05:57:53.990Z,1013.53
2022-10-28T05:58:53.752Z,1013.55
2022-10-28T05:59:53.675Z,1013.49
2022-10-28T06:00:53.663Z,1013.58
2022-10-28T06:01:53.681Z,1013.60
2022-10-28T06:02:53.863Z,1013.54
2022-10-28T06:03:53.654Z,1013.59
2022-10-28T06:04:53.726Z,1013.58
2022-10-28T06:05:53.668Z,1013.56
2022-10-28T06:06:53.584Z,1013.50
2022-10-28T06:07:53.563Z,1013.51
2022-10-28T06:08:53.585Z,1013.51
2022-10-28T06:09:53.536Z,1013.48
2022-10-28T06:10:52.700Z,1013.49
2022-10-28T06:11:51.996Z,1013.47
2022-10-28T06:12:52.301Z,1013.51
2022-10-28T06:13:51.966Z,1013.47
2022-10-28T06:14:51.935Z,1013.47
2022-10-28T06:15:51.933Z,1013.48
2022-10-28T06:16:52.060Z,1013.49
2022-10-28T06:17:51.911Z,1013.48
2022-10-28T06:18:51.900Z,1013.51
2022-10-28T06:19:51.892Z,1013.49
2022-10-28T06:20:51.866Z,1013.51
2022-10-28T06:21:51.881Z,1013.50
2022-10-28T06:22:52.357Z,1013.55
2022-10-28T06:23:51.853Z,1013.54
2022-10-28T06:24:51.934Z,1013.60
2022-10-28T06:25:51.868Z,1013.63
2022-10-28T06:26:51.790Z,1013.65
2022-10-28T06:27:52.100Z,1013.59
2022-10-28T06:28:51.803Z,1013.59
2022-10-28T06:29:51.765Z,1013.64
2022-10-28T06:30:51.765Z,1013.65
2022-10-28T06:31:51.729Z,1013.69
2022-10-28T06:32:51.734Z,1013.66
2022-10-28T06:33:51.718Z,1013.70
2022-10-28T06:34:51.799Z,1013.73
2022-10-28T06:35:51.701Z,1013.70
2022-10-28T06:36:51.673Z,1013.74
2022-10-28T06:37:52.002Z,1013.69
2022-10-28T06:38:51.653Z,1013.71
2022-10-28T06:39:51.633Z,1013.72
2022-10-28T06:40:52.644Z,1013.76
2022-10-28T06:41:51.598Z,1013.69
2022-10-28T06:42:51.832Z,1013.72
2022-10-28T06:43:51.598Z,1013.69
2022-10-28T06:44:51.593Z,1013.67
2022-10-28T06:45:51.589Z,1013.70
2022-10-28T06:46:53.179Z,1013.70
2022-10-28T06:47:53.028Z,1013.71
2022-10-28T06:48:53.079Z,1013.70
2022-10-28T06:49:53.019Z,1013.55
2022-10-28T06:50:53.013Z,1013.55
2022-10-28T06:51:53.023Z,1013.50
2022-10-28T06:52:53.089Z,1013.56
2022-10-28T06:53:52.997Z,1013.60
2022-10-28T06:54:52.954Z,1013.61
2022-10-28T06:55:52.955Z,1013.66
2022-10-28T06:56:52.962Z,1013.67
2022-10-28T06:57:53.271Z,1013.65
2022-10-28T06:58:52.989Z,1013.66
2022-10-28T06:59:52.959Z,1013.71
2022-10-28T07:00:52.921Z,1013.70
2022-10-28T07:01:52.939Z,1013.73
2022-10-28T07:02:52.937Z,1013.70
2022-10-28T07:03:52.870Z,1013.68
2022-10-28T07:04:52.998Z,1013.72
2022-10-28T07:05:52.816Z,1013.71
2022-10-28T07:06:52.822Z,1013.71
2022-10-28T07:07:53.044Z,1013.76
2022-10-28T07:08:52.821Z,1013.69
2022-10-28T07:09:52.772Z,1013.71
2022-10-28T07:10:52.827Z,1013.73
2022-10-28T07:11:55.123Z,1013.78
2022-10-28T07:12:52.993Z,1013.73
2022-10-28T07:13:52.735Z,1013.73
2022-10-28T07:14:52.696Z,1013.73
2022-10-28T07:15:52.711Z,1013.79
2022-10-28T07:16:52.803Z,1013.74
2022-10-28T07:17:52.695Z,1013.79
2022-10-28T07:18:52.695Z,1013.76
2022-10-28T07:19:52.636Z,1013.77
2022-10-28T07:20:52.663Z,1013.78
2022-10-28T07:21:52.628Z,1013.78
2022-10-28T07:22:52.991Z,1013.80
2022-10-28T07:23:52.614Z,1013.79
2022-10-28T07:24:53.211Z,1013.80
2022-10-28T07:26:55.496Z,1013.81
2022-10-28T07:27:53.924Z,1013.82
2022-10-28T07:28:52.560Z,1013.83
2022-10-28T07:29:52.545Z,1013.85
2022-10-28T07:30:52.517Z,1013.80
2022-10-28T07:31:52.507Z,1013.83
2022-10-28T07:32:52.819Z,1013.83
2022-10-28T07:33:52.478Z,1013.89
2022-10-28T07:34:52.428Z,1013.85
2022-10-28T07:35:52.435Z,1013.92
2022-10-28T07:36:52.430Z,1013.90
2022-10-28T07:37:52.399Z,1013.89
2022-10-28T07:38:52.408Z,1013.89
2022-10-28T07:39:52.414Z,1013.92
2022-10-28T07:40:52.370Z,1013.86
2022-10-28T07:41:52.330Z,1013.88
2022-10-28T07:42:52.587Z,1013.92
2022-10-28T07:43:52.333Z,1013.89
2022-10-28T07:44:52.319Z,1013.92
2022-10-28T07:45:52.353Z,1013.86
2022-10-28T07:46:55.620Z,1013.82
2022-10-28T07:47:53.261Z,1013.83
2022-10-28T07:48:52.256Z,1013.82
2022-10-28T07:49:52.252Z,1013.80
2022-10-28T07:50:52.236Z,1013.81
2022-10-28T07:51:52.253Z,1013.84
2022-10-28T07:52:52.682Z,1013.85
2022-10-28T07:53:52.215Z,1013.87
2022-10-28T07:54:52.169Z,1013.88
2022-10-28T07:55:52.179Z,1013.92
2022-10-28T07:56:52.175Z,1013.91
2022-10-28T07:57:52.604Z,1013.97
2022-10-28T07:58:52.132Z,1013.97
2022-10-28T07:59:52.128Z,1013.95
2022-10-28T08:00:52.144Z,1013.97
2022-10-28T08:01:52.109Z,1013.98
2022-10-28T08:02:52.060Z,1014.00
2022-10-28T08:03:52.180Z,1014.00
2022-10-28T08:04:52.038Z,1014.04
2022-10-28T08:05:55.238Z,1014.04
2022-10-28T08:07:52.394Z,1014.04
2022-10-28T08:08:51.978Z,1014.03
2022-10-28T08:09:52.058Z,1014.05
2022-10-28T08:10:51.957Z,1014.06
2022-10-28T08:11:51.913Z,1013.98
2022-10-28T08:12:51.903Z,1014.03
2022-10-28T08:13:51.886Z,1014.01
2022-10-28T08:14:51.887Z,1014.02
2022-10-28T08:15:51.961Z,1014.01
2022-10-28T08:16:51.871Z,1014.04
2022-10-28T08:17:52.101Z,1013.98
2022-10-28T08:18:51.827Z,1013.95
2022-10-28T08:19:51.817Z,1013.93
2022-10-28T08:20:51.803Z,1013.96
2022-10-28T08:21:51.898Z,1013.88
2022-10-28T08:22:52.069Z,1013.90
2022-10-28T08:23:51.743Z,1013.87
2022-10-28T08:24:51.735Z,1013.89
2022-10-28T08:25:51.711Z,1013.84
2022-10-28T08:26:51.746Z,1013.86
2022-10-28T08:27:51.730Z,1013.85
2022-10-28T08:28:51.673Z,1013.84
2022-10-28T08:29:51.674Z,1013.81
2022-10-28T08:31:04.120Z,1013.84
2022-10-28T08:31:52.638Z,1013.88
2022-10-28T08:32:51.852Z,1013.88
2022-10-28T08:33:51.697Z,1013.91
2022-10-28T08:34:51.594Z,1013.92
2022-10-28T08:35:51.579Z,1013.93
2022-10-28T08:36:51.607Z,1013.89
2022-10-28T08:37:51.823Z,1013.88
2022-10-28T08:38:51.549Z,1013.85
2022-10-28T08:39:51.698Z,1013.81
2022-10-28T08:40:51.562Z,1013.86
2022-10-28T08:41:51.523Z,1013.83
2022-10-28T08:42:51.769Z,1013.83
2022-10-28T08:43:57.672Z,1013.85
2022-10-28T08:44:52.503Z,1013.88
2022-10-28T08:45:51.457Z,1013.85
2022-10-28T08:46:51.448Z,1013.79
2022-10-28T08:47:51.683Z,1013.75
2022-10-28T08:48:51.426Z,1013.78
2022-10-28T08:49:51.381Z,1013.78
2022-10-28T08:50:51.536Z,1013.79
2022-10-28T08:51:51.395Z,1013.79
2022-10-28T08:52:51.567Z,1013.81
2022-10-28T08:53:51.394Z,1013.76
2022-10-28T08:54:51.335Z,1013.77
2022-10-28T08:55:51.346Z,1013.79
2022-10-28T08:56:51.360Z,1013.76
2022-10-28T08:57:51.278Z,1013.83
2022-10-28T08:58:51.308Z,1013.84
2022-10-28T08:59:51.264Z,1013.82
2022-10-28T09:00:51.259Z,1013.83
2022-10-28T09:01:51.429Z,1013.79
2022-10-28T09:02:51.608Z,1013.82
2022-10-28T09:03:51.209Z,1013.87
2022-10-28T09:04:51.214Z,1013.82
2022-10-28T09:05:51.179Z,1013.84
2022-10-28T09:06:51.194Z,1013.88
2022-10-28T09:07:51.226Z,1013.85
2022-10-28T09:08:51.201Z,1013.88
2022-10-28T09:09:51.136Z,1013.84
2022-10-28T09:10:51.123Z,1013.83
2022-10-28T09:11:51.094Z,1013.85
2022-10-28T09:12:51.356Z,1013.76
2022-10-28T09:13:51.076Z,1013.82
2022-10-28T09:14:54.417Z,1013.81
2022-10-28T09:15:51.090Z,1013.81
2022-10-28T09:16:51.039Z,1013.77
2022-10-28T09:17:51.244Z,1013.77
2022-10-28T09:18:51.030Z,1013.73
2022-10-28T09:19:51.029Z,1013.68
2022-10-28T09:20:51.089Z,1013.68
2022-10-28T09:21:50.991Z,1013.69
2022-10-28T09:22:50.997Z,1013.68
2022-10-28T09:23:50.961Z,1013.66
2022-10-28T09:24:50.953Z,1013.69
2022-10-28T09:25:50.940Z,1013.74
2022-10-28T09:26:51.042Z,1013.69
2022-10-28T09:27:51.107Z,1013.66
2022-10-28T09:28:50.950Z,1013.66
2022-10-28T09:29:50.905Z,1013.66
2022-10-28T09:30:50.882Z,1013.72
2022-10-28T09:31:50.862Z,1013.71
2022-10-28T09:32:51.190Z,1013.66
2022-10-28T09:33:50.839Z,1013.64
2022-10-28T09:34:50.864Z,1013.61
2022-10-28T09:35:50.774Z,1013.57
2022-10-28T09:36:50.789Z,1013.52
2022-10-28T09:37:50.774Z,1013.57
2022-10-28T09:38:50.888Z,1013.50
2022-10-28T09:39:50.729Z,1013.51
2022-10-28T09:40:50.722Z,1013.54
2022-10-28T09:41:50.710Z,1013.52
2022-10-28T09:42:50.720Z,1013.56
2022-10-28T09:43:50.674Z,1013.50
2022-10-28T09:44:50.733Z,1013.48
2022-10-28T09:45:50.687Z,1013.46
2022-10-28T09:46:50.693Z,1013.50
2022-10-28T09:47:50.707Z,1013.50
2022-10-28T09:48:50.621Z,1013.48
2022-10-28T09:49:50.599Z,1013.53
2022-10-28T09:50:50.715Z,1013.55
2022-10-28T09:51:50.584Z,1013.56
2022-10-28T09:52:50.592Z,1013.55
2022-10-28T09:53:50.557Z,1013.62
2022-10-28T09:54:50.553Z,1013.61
2022-10-28T09:55:50.532Z,1013.62
2022-10-28T09:56:50.558Z,1013.62
2022-10-28T09:57:50.507Z,1013.61
2022-10-28T09:58:50.515Z,1013.62
2022-10-28T09:59:50.518Z,1013.63
2022-10-28T10:00:50.499Z,1013.62
2022-10-28T10:01:50.528Z,1013.60
2022-10-28T10:02:50.675Z,1013.66
2022-10-28T10:03:50.406Z,1013.66
2022-10-28T10:04:50.409Z,1013.65
2022-10-28T10:05:50.422Z,1013.67
2022-10-28T10:06:50.416Z,1013.59
2022-10-28T10:07:50.370Z,1013.60
2022-10-28T10:08:50.490Z,1013.59
2022-10-28T10:09:50.413Z,1013.60
2022-10-28T10:10:50.362Z,1013.56
2022-10-28T10:11:51.080Z,1013.57
2022-10-28T10:12:54.246Z,1013.55
2022-10-28T10:14:00.385Z,1013.57
2022-10-28T10:14:50.422Z,1013.52
2022-10-28T10:15:50.275Z,1013.51
2022-10-28T10:16:50.319Z,1013.51
2022-10-28T10:17:50.239Z,1013.50
2022-10-28T10:18:50.254Z,1013.51
2022-10-28T10:19:50.578Z,1013.53
2022-10-28T10:20:50.297Z,1013.48
2022-10-28T10:21:50.185Z,1013.50
2022-10-28T10:22:50.204Z,1013.49
2022-10-28T10:23:50.203Z,1013.44
2022-10-28T10:24:50.151Z,1013.47
2022-10-28T10:25:50.171Z,1013.52
2022-10-28T10:26:50.214Z,1013.49
2022-10-28T10:27:50.111Z,1013.54
2022-10-28T10:28:50.142Z,1013.51
2022-10-28T10:29:50.086Z,1013.58
2022-10-28T10:30:50.089Z,1013.52
2022-10-28T10:31:50.071Z,1013.57
2022-10-28T10:32:50.060Z,1013.51
2022-10-28T10:33:50.060Z,1013.45
2022-10-28T10:34:49.997Z,1013.49
2022-10-28T10:35:50.031Z,1013.49
2022-10-28T10:36:50.067Z,1013.47
2022-10-28T10:37:49.994Z,1013.43
2022-10-28T10:38:50.005Z,1013.47
2022-10-28T10:39:49.970Z,1013.48
2022-10-28T10:40:49.954Z,1013.47
2022-10-28T10:41:49.922Z,1013.52
2022-10-28T10:43:09.518Z,1013.49
2022-10-28T10:43:50.936Z,1013.52
2022-10-28T10:44:49.863Z,1013.50
2022-10-28T10:45:49.896Z,1013.46
2022-10-28T10:46:49.845Z,1013.46
2022-10-28T10:47:49.855Z,1013.45
2022-10-28T10:48:49.828Z,1013.45
2022-10-28T10:49:50.264Z,1013.49
2022-10-28T10:50:49.821Z,1013.46
2022-10-28T10:51:49.800Z,1013.45
2022-10-28T10:52:49.830Z,1013.49
2022-10-28T10:53:49.749Z,1013.51
2022-10-28T10:54:49.789Z,1013.54
2022-10-28T10:55:49.874Z,1013.59
2022-10-28T10:56:49.750Z,1013.59
2022-10-28T10:57:49.702Z,1013.61
2022-10-28T10:58:49.710Z,1013.57
2022-10-28T10:59:49.705Z,1013.56
2022-10-28T11:00:49.659Z,1013.51
2022-10-28T11:01:49.810Z,1013.62
2022-10-28T11:02:52.236Z,1013.62
2022-10-28T11:03:50.694Z,1013.59
2022-10-28T11:04:49.601Z,1013.63
2022-10-28T11:05:55.077Z,1013.57
2022-10-28T11:06:50.622Z,1013.62
2022-10-28T11:07:49.563Z,1013.62
2022-10-28T11:08:49.562Z,1013.61
2022-10-28T11:09:49.542Z,1013.49
2022-10-28T11:10:49.548Z,1013.49
2022-10-28T11:11:49.528Z,1013.47
2022-10-28T11:12:49.635Z,1013.46
2022-10-28T11:13:49.500Z,1013.44
2022-10-28T11:14:49.477Z,1013.45
2022-10-28T11:15:49.466Z,1013.37
2022-10-28T11:16:49.477Z,1013.42
2022-10-28T11:17:49.445Z,1013.42
2022-10-28T11:18:49.560Z,1013.36
2022-10-28T11:19:49.428Z,1013.40
2022-10-28T11:20:49.395Z,1013.36
2022-10-28T11:21:49.412Z,1013.42
2022-10-28T11:22:49.351Z,1013.43
2022-10-28T11:23:49.356Z,1013.40
2022-10-28T11:24:49.464Z,1013.41
2022-10-28T11:25:49.343Z,1013.42
2022-10-28T11:26:49.315Z,1013.42
2022-10-28T11:27:53.806Z,1013.36
2022-10-28T11:28:50.320Z,1013.36
2022-10-28T11:29:49.295Z,1013.38
2022-10-28T11:30:49.415Z,1013.39
2022-10-28T11:31:49.270Z,1013.40
2022-10-28T11:33:01.938Z,1013.39
2022-10-28T11:33:50.228Z,1013.37
2022-10-28T11:34:49.195Z,1013.39
2022-10-28T11:35:49.217Z,1013.34
2022-10-28T11:36:49.318Z,1013.32
2022-10-28T11:37:49.168Z,1013.32
2022-10-28T11:38:49.180Z,1013.30
2022-10-28T11:39:49.170Z,1013.31
2022-10-28T11:40:49.136Z,1013.30
2022-10-28T11:41:49.139Z,1013.26
2022-10-28T11:42:49.253Z,1013.21
2022-10-28T11:43:54.356Z,1013.25
2022-10-28T11:44:50.084Z,1013.28
2022-10-28T11:45:51.370Z,1013.28
2022-10-28T11:46:49.051Z,1013.27
2022-10-28T11:47:49.044Z,1013.31
2022-10-28T11:48:49.160Z,1013.28
2022-10-28T11:49:49.022Z,1013.23
2022-10-28T11:50:49.015Z,1013.29
2022-10-28T11:51:48.995Z,1013.30
2022-10-28T11:52:48.975Z,1013.27
2022-10-28T11:53:48.979Z,1013.27
2022-10-28T11:54:49.065Z,1013.25
2022-10-28T11:55:48.926Z,1013.25
2022-10-28T11:56:48.920Z,1013.21
2022-10-28T11:57:48.929Z,1013.22
2022-10-28T11:58:48.876Z,1013.22
2022-10-28T11:59:48.875Z,1013.18
2022-10-28T12:00:49.004Z,1013.18
2022-10-28T12:01:48.947Z,1013.12
2022-10-28T12:02:52.319Z,1013.08
2022-10-28T12:03:48.850Z,1013.11
2022-10-28T12:04:48.829Z,1013.11
2022-10-28T12:05:48.813Z,1013.08
2022-10-28T12:06:48.930Z,1013.07
2022-10-28T12:07:48.784Z,1013.09